Time;durP1;ratioP1;P1;durP2;ratioP2;P2;SDS_P1;SDS_P2;PMS_P1;PMS_P2;Temp;Humidity;BMP_temperature;BMP_pressure;BME280_temperature;BME280_humidity;BME280_pressure;Samples;Min_cycle;Max_cycle;Signal;HPM_P1;HPM_P2
2023/08/26 00:00:21;;;;;;;13.40;10.82;;;;;;;;;;5069251;28;20214;-73
2023/08/26 00:02:47;;;;;;;13.73;9.48;;;;;;;;;;5070884;28;20195;-73
2023/08/26 00:05:13;;;;;;;14.52;9.73;;;;;;;;;;5068369;28;20275;-73
2023/08/26 00:07:40;;;;;;;13.68;9.88;;;;;;;;;;5070735;28;20218;-73
2023/08/26 00:10:07;;;;;;;16.65;9.63;;;;;;;;;;5070477;28;20263;-73
2023/08/26 00:12:33;;;;;;;18.20;10.50;;;;;;;;;;5071203;28;20213;-73
2023/08/26 00:14:59;;;;;;;19.38;10.95;;;;;;;;;;5062240;28;20724;-73
2023/08/26 00:17:25;;;;;;;17.35;11.27;;;;;;;;;;5068305;28;20204;-73
2023/08/26 00:19:52;;;;;;;15.75;10.70;;;;;;;;;;5071186;28;20214;-73
2023/08/26 00:22:18;;;;;;;12.68;9.43;;;;;;;;;;5070283;28;20213;-73
2023/08/26 00:24:44;;;;;;;15.43;10.55;;;;;;;;;;5068738;28;20213;-73
2023/08/26 00:27:11;;;;;;;14.77;10.10;;;;;;;;;;5065128;28;20202;-73
2023/08/26 00:29:37;;;;;;;18.70;11.82;;;;;;;;;;5070448;28;20201;-73
2023/08/26 00:32:03;;;;;;;16.60;11.18;;;;;;;;;;5067641;28;20198;-73
2023/08/26 00:34:30;;;;;;;15.95;10.63;;;;;;;;;;5052030;28;20682;-73
2023/08/26 00:36:56;;;;;;;17.00;11.45;;;;;;;;;;5068796;28;20271;-73
2023/08/26 00:39:23;;;;;;;14.85;10.40;;;;;;;;;;5069567;28;20585;-73
2023/08/26 00:41:49;;;;;;;14.38;10.27;;;;;;;;;;5069354;28;20198;-73
2023/08/26 00:44:15;;;;;;;15.15;10.02;;;;;;;;;;5069538;28;20404;-73
2023/08/26 00:46:41;;;;;;;16.58;11.18;;;;;;;;;;5064123;28;20778;-73
2023/08/26 00:49:08;;;;;;;15.05;10.82;;;;;;;;;;5069642;28;20209;-73
2023/08/26 00:51:36;;;;;;;17.75;11.70;;;;;;;;;;5069773;28;20289;-73
2023/08/26 00:54:04;;;;;;;15.70;11.20;;;;;;;;;;5069249;28;20335;-73
2023/08/26 00:56:32;;;;;;;18.02;11.30;;;;;;;;;;5068173;28;20289;-73
2023/08/26 00:58:58;;;;;;;17.75;11.52;;;;;;;;;;5069419;28;20213;-73
2023/08/26 01:01:25;;;;;;;14.85;10.52;;;;;;;;;;5067702;28;20194;-73
2023/08/26 01:03:52;;;;;;;15.27;11.02;;;;;;;;;;5069830;28;20221;-73
2023/08/26 01:06:18;;;;;;;18.08;10.95;;;;;;;;;;5070219;28;20297;-73
2023/08/26 01:08:45;;;;;;;16.30;11.30;;;;;;;;;;5069283;28;20204;-73
2023/08/26 01:11:14;;;;;;;16.33;11.25;;;;;;;;;;5070383;28;20564;-73
2023/08/26 01:13:50;;;;;;;16.63;10.68;;;;;;;;;;5070216;28;20237;-73
2023/08/26 01:16:17;;;;;;;18.30;10.48;;;;;;;;;;5050854;28;20666;-73
2023/08/26 01:18:44;;;;;;;16.50;11.07;;;;;;;;;;5063274;28;20251;-73
2023/08/26 01:21:11;;;;;;;13.13;10.45;;;;;;;;;;5070412;28;20218;-73
2023/08/26 01:23:41;;;;;;;13.85;10.18;;;;;;;;;;5069989;28;20218;-73
2023/08/26 01:26:08;;;;;;;12.77;9.80;;;;;;;;;;5061461;28;20198;-73
2023/08/26 01:28:34;;;;;;;13.75;10.05;;;;;;;;;;5047793;28;20559;-73
2023/08/26 01:31:08;;;;;;;14.23;10.10;;;;;;;;;;5063887;28;20579;-73
2023/08/26 01:33:36;;;;;;;14.90;10.10;;;;;;;;;;5061474;28;20198;-73
2023/08/26 01:36:03;;;;;;;16.40;10.82;;;;;;;;;;5064195;28;20294;-73
2023/08/26 01:38:30;;;;;;;17.17;9.88;;;;;;;;;;5068117;28;20473;-73
2023/08/26 01:40:58;;;;;;;14.60;11.00;;;;;;;;;;5072000;28;20605;-72
2023/08/26 01:43:25;;;;;;;19.42;10.20;;;;;;;;;;5071445;28;20201;-73
2023/08/26 01:45:52;;;;;;;14.52;9.10;;;;;;;;;;5056861;28;20226;-73
2023/08/26 01:48:18;;;;;;;14.30;10.02;;;;;;;;;;5052149;28;20201;-73
2023/08/26 01:50:45;;;;;;;13.13;9.68;;;;;;;;;;5053399;28;20209;-73
2023/08/26 01:53:11;;;;;;;12.98;9.48;;;;;;;;;;5035970;28;20202;-73
2023/08/26 01:55:38;;;;;;;11.93;9.07;;;;;;;;;;5055445;28;20229;-73
2023/08/26 01:58:04;;;;;;;13.65;9.50;;;;;;;;;;5055856;28;20302;-73
2023/08/26 02:00:30;;;;;;;11.60;8.65;;;;;;;;;;5056024;28;20250;-73
2023/08/26 02:02:57;;;;;;;12.15;9.32;;;;;;;;;;5060075;28;20194;-73
2023/08/26 02:05:23;;;;;;;18.42;8.93;;;;;;;;;;5056164;28;20229;-73
2023/08/26 02:07:49;;;;;;;11.13;8.73;;;;;;;;;;5054380;28;20194;-73
2023/08/26 02:10:16;;;;;;;14.20;8.73;;;;;;;;;;5039364;28;20697;-73
2023/08/26 02:12:42;;;;;;;11.98;8.57;;;;;;;;;;5064074;28;20203;-73
2023/08/26 02:15:08;;;;;;;13.13;8.55;;;;;;;;;;5054874;28;20732;-73
2023/08/26 02:17:35;;;;;;;11.25;8.50;;;;;;;;;;5054219;28;20222;-73
2023/08/26 02:20:01;;;;;;;12.30;8.85;;;;;;;;;;5046915;28;20229;-73
2023/08/26 02:22:27;;;;;;;11.18;8.32;;;;;;;;;;5054552;28;20252;-73
2023/08/26 02:24:54;;;;;;;14.10;8.90;;;;;;;;;;5055183;28;20215;-73
2023/08/26 02:27:20;;;;;;;12.95;8.23;;;;;;;;;;5054432;28;20280;-72
2023/08/26 02:29:46;;;;;;;14.07;8.77;;;;;;;;;;5053381;28;20893;-72
2023/08/26 02:32:13;;;;;;;16.25;8.55;;;;;;;;;;5054600;28;20297;-72
2023/08/26 02:34:39;;;;;;;13.80;8.38;;;;;;;;;;5054019;28;20218;-72
2023/08/26 02:37:05;;;;;;;12.70;7.95;;;;;;;;;;5053968;28;20234;-72
2023/08/26 02:39:32;;;;;;;12.75;8.30;;;;;;;;;;5051727;28;20596;-73
2023/08/26 02:41:58;;;;;;;14.02;8.10;;;;;;;;;;5053795;28;20199;-73
2023/08/26 02:44:24;;;;;;;12.23;7.68;;;;;;;;;;5053848;28;20251;-73
2023/08/26 02:46:50;;;;;;;14.15;8.02;;;;;;;;;;5054350;28;20241;-73
2023/08/26 02:49:17;;;;;;;13.65;8.27;;;;;;;;;;5051317;28;20203;-72
2023/08/26 02:51:43;;;;;;;9.40;7.50;;;;;;;;;;5054291;28;20297;-72
2023/08/26 02:54:09;;;;;;;14.40;8.57;;;;;;;;;;5053363;28;20231;-72
2023/08/26 02:56:35;;;;;;;11.57;8.00;;;;;;;;;;5052785;28;20282;-72
2023/08/26 02:59:02;;;;;;;11.20;6.97;;;;;;;;;;5053350;28;20210;-73
2023/08/26 03:01:30;;;;;;;11.68;7.35;;;;;;;;;;5052977;28;20226;-73
2023/08/26 03:03:57;;;;;;;11.38;6.70;;;;;;;;;;5035353;28;20596;-73
2023/08/26 03:06:24;;;;;;;10.02;6.75;;;;;;;;;;5051385;28;20210;-73
2023/08/26 03:08:50;;;;;;;13.20;6.80;;;;;;;;;;5052997;28;20199;-73
2023/08/26 03:11:16;;;;;;;10.07;6.53;;;;;;;;;;5053484;28;20209;-73
2023/08/26 03:13:43;;;;;;;9.82;6.95;;;;;;;;;;5053245;28;20225;-73
2023/08/26 03:16:10;;;;;;;8.07;6.22;;;;;;;;;;5052127;28;20210;-73
2023/08/26 03:18:39;;;;;;;9.27;5.63;;;;;;;;;;5052718;28;20213;-72
2023/08/26 03:21:06;;;;;;;9.52;5.28;;;;;;;;;;5052795;28;20301;-72
2023/08/26 03:23:32;;;;;;;8.57;5.50;;;;;;;;;;5044358;28;20286;-72
2023/08/26 03:25:59;;;;;;;6.93;4.95;;;;;;;;;;5048867;28;20195;-73
2023/08/26 03:28:25;;;;;;;11.05;5.47;;;;;;;;;;5052863;28;20694;-72
2023/08/26 03:30:51;;;;;;;7.03;4.93;;;;;;;;;;5034622;28;20206;-72
2023/08/26 03:33:18;;;;;;;8.43;4.53;;;;;;;;;;5051171;28;20203;-73
2023/08/26 03:35:44;;;;;;;9.63;4.82;;;;;;;;;;5051609;28;20201;-72
2023/08/26 03:38:10;;;;;;;7.63;4.30;;;;;;;;;;5050591;28;20207;-73
2023/08/26 03:40:42;;;;;;;7.43;4.40;;;;;;;;;;5052226;28;20215;-73
2023/08/26 03:43:09;;;;;;;8.87;4.10;;;;;;;;;;5051518;28;20657;-72
2023/08/26 03:45:35;;;;;;;7.37;4.03;;;;;;;;;;5051397;28;20702;-72
2023/08/26 03:48:02;;;;;;;11.47;4.27;;;;;;;;;;5033414;28;20693;-72
2023/08/26 03:50:28;;;;;;;4.70;3.80;;;;;;;;;;5049038;28;20207;-72
2023/08/26 03:52:54;;;;;;;7.53;3.73;;;;;;;;;;5051181;28;20670;-72
2023/08/26 03:55:21;;;;;;;4.75;3.75;;;;;;;;;;5050666;28;20226;-72
2023/08/26 03:57:47;;;;;;;6.57;3.92;;;;;;;;;;5050573;28;20203;-72
2023/08/26 04:00:14;;;;;;;7.40;4.55;;;;;;;;;;5047963;28;20225;-72
2023/08/26 04:02:41;;;;;;;8.15;4.38;;;;;;;;;;5043730;28;20202;-72
2023/08/26 04:05:07;;;;;;;7.43;3.78;;;;;;;;;;5050467;28;20718;-72
2023/08/26 04:07:34;;;;;;;5.00;3.77;;;;;;;;;;5033545;28;20202;-72
2023/08/26 04:10:00;;;;;;;6.18;4.30;;;;;;;;;;5050881;28;20200;-72
2023/08/26 04:12:26;;;;;;;10.47;4.07;;;;;;;;;;5048853;28;20202;-72
2023/08/26 04:14:52;;;;;;;7.23;3.80;;;;;;;;;;5039862;28;20706;-72
2023/08/26 04:17:19;;;;;;;8.10;4.30;;;;;;;;;;5049475;28;20206;-73
2023/08/26 04:19:45;;;;;;;6.67;3.87;;;;;;;;;;5050307;28;20194;-73
2023/08/26 04:22:11;;;;;;;6.80;3.73;;;;;;;;;;5047877;28;20206;-72
2023/08/26 04:24:37;;;;;;;5.30;3.83;;;;;;;;;;5057830;28;20221;-72
2023/08/26 04:27:04;;;;;;;7.67;3.83;;;;;;;;;;5050365;28;20198;-72
2023/08/26 04:29:30;;;;;;;6.57;4.17;;;;;;;;;;5049931;28;20222;-72
2023/08/26 04:31:56;;;;;;;6.70;3.90;;;;;;;;;;5060667;28;20761;-72
2023/08/26 04:34:23;;;;;;;6.43;3.43;;;;;;;;;;5069542;28;20222;-73
2023/08/26 04:36:49;;;;;;;6.47;4.00;;;;;;;;;;5064358;28;20206;-72
2023/08/26 04:39:19;;;;;;;4.23;3.00;;;;;;;;;;5049964;28;20589;-72
2023/08/26 04:41:45;;;;;;;3.47;2.53;;;;;;;;;;5051701;28;20211;-72
2023/08/26 04:44:12;;;;;;;5.70;2.93;;;;;;;;;;5068913;28;20666;-73
2023/08/26 04:46:38;;;;;;;3.50;2.30;;;;;;;;;;5057110;28;20655;-72
2023/08/26 04:49:04;;;;;;;2.80;2.20;;;;;;;;;;5049711;28;20701;-73
2023/08/26 04:51:31;;;;;;;4.20;2.10;;;;;;;;;;5051609;28;20285;-72
2023/08/26 04:53:57;;;;;;;3.70;1.90;;;;;;;;;;5045915;28;20226;-72
2023/08/26 04:56:24;;;;;;;2.87;1.97;;;;;;;;;;5058836;28;20567;-73
2023/08/26 04:58:50;;;;;;;4.30;2.07;;;;;;;;;;5050054;28;20218;-72
2023/08/26 05:01:17;;;;;;;3.63;1.73;;;;;;;;;;5049882;28;20219;-73
2023/08/26 05:03:43;;;;;;;2.80;2.00;;;;;;;;;;5058327;28;20218;-72
2023/08/26 05:06:09;;;;;;;2.70;1.90;;;;;;;;;;5069066;28;20289;-72
2023/08/26 05:08:36;;;;;;;2.83;1.40;;;;;;;;;;5049701;28;20255;-72
2023/08/26 05:11:03;;;;;;;7.60;1.60;;;;;;;;;;5050437;28;20214;-72
2023/08/26 05:13:29;;;;;;;3.00;1.30;;;;;;;;;;5053165;28;20209;-72
2023/08/26 05:15:56;;;;;;;2.97;1.50;;;;;;;;;;5069572;28;20209;-72
2023/08/26 05:18:22;;;;;;;2.10;1.50;;;;;;;;;;5051069;28;20297;-72
2023/08/26 05:20:48;;;;;;;3.77;1.40;;;;;;;;;;5031834;28;20221;-72
2023/08/26 05:23:14;;;;;;;2.83;1.50;;;;;;;;;;5052239;28;20190;-72
2023/08/26 05:25:43;;;;;;;1.77;1.30;;;;;;;;;;5067933;28;20218;-72
2023/08/26 05:28:10;;;;;;;5.17;1.70;;;;;;;;;;5063454;28;20218;-72
2023/08/26 05:30:36;;;;;;;2.30;1.50;;;;;;;;;;5059739;28;20195;-72
2023/08/26 05:33:02;;;;;;;4.60;1.57;;;;;;;;;;5052966;28;20628;-72
2023/08/26 05:35:28;;;;;;;2.13;1.30;;;;;;;;;;5052923;28;20230;-72
2023/08/26 05:37:55;;;;;;;2.23;1.47;;;;;;;;;;5059126;28;20199;-72
2023/08/26 05:40:26;;;;;;;3.23;1.53;;;;;;;;;;5052749;28;20241;-71
2023/08/26 05:42:56;;;;;;;2.73;1.50;;;;;;;;;;5052851;28;20546;-72
2023/08/26 05:45:24;;;;;;;1.83;1.40;;;;;;;;;;5061281;28;20301;-72
2023/08/26 05:47:51;;;;;;;3.07;1.60;;;;;;;;;;5053175;28;20355;-72
2023/08/26 05:50:17;;;;;;;1.40;1.20;;;;;;;;;;5036013;28;20202;-72
2023/08/26 05:52:44;;;;;;;3.50;1.70;;;;;;;;;;5059907;28;20277;-72
2023/08/26 05:55:11;;;;;;;3.87;1.60;;;;;;;;;;5060503;28;20215;-72
2023/08/26 05:57:37;;;;;;;3.87;1.60;;;;;;;;;;5061444;28;20202;-72
2023/08/26 06:00:07;;;;;;;1.63;1.53;;;;;;;;;;5052906;28;20226;-72
2023/08/26 06:02:34;;;;;;;3.70;1.50;;;;;;;;;;5058068;28;20194;-71
2023/08/26 06:05:00;;;;;;;2.97;1.60;;;;;;;;;;5034738;28;20214;-72
2023/08/26 06:07:27;;;;;;;2.40;1.60;;;;;;;;;;5052497;28;20199;-72
2023/08/26 06:09:53;;;;;;;3.50;1.60;;;;;;;;;;5053747;28;20205;-72
2023/08/26 06:12:19;;;;;;;3.00;1.97;;;;;;;;;;5052530;28;20291;-71
2023/08/26 06:14:46;;;;;;;2.07;1.70;;;;;;;;;;5051914;28;20703;-71
2023/08/26 06:17:12;;;;;;;6.10;1.90;;;;;;;;;;5052340;28;20203;-71
2023/08/26 06:19:38;;;;;;;4.17;1.97;;;;;;;;;;5052079;28;20224;-72
2023/08/26 06:22:05;;;;;;;2.20;1.40;;;;;;;;;;5050170;28;20305;-72
2023/08/26 06:24:31;;;;;;;6.40;1.80;;;;;;;;;;5051929;28;20297;-72
2023/08/26 06:26:57;;;;;;;6.03;2.57;;;;;;;;;;5052535;28;20248;-71
2023/08/26 06:29:25;;;;;;;2.93;2.10;;;;;;;;;;5051728;28;20553;-72
2023/08/26 06:31:51;;;;;;;4.03;2.00;;;;;;;;;;5050215;28;20210;-72
2023/08/26 06:34:18;;;;;;;2.57;2.10;;;;;;;;;;5051801;28;20254;-72
2023/08/26 06:36:45;;;;;;;5.80;2.40;;;;;;;;;;5034429;28;20202;-72
2023/08/26 06:39:13;;;;;;;4.17;2.13;;;;;;;;;;5052046;28;20199;-72
2023/08/26 06:41:40;;;;;;;3.50;1.70;;;;;;;;;;5042466;28;20218;-72
2023/08/26 06:44:07;;;;;;;2.03;1.83;;;;;;;;;;5051946;28;20223;-72
2023/08/26 06:46:33;;;;;;;2.33;1.60;;;;;;;;;;5051810;28;20195;-71
2023/08/26 06:49:00;;;;;;;2.57;2.03;;;;;;;;;;5051982;28;20202;-72
2023/08/26 06:51:26;;;;;;;4.10;1.80;;;;;;;;;;5050889;28;20294;-71
2023/08/26 06:53:52;;;;;;;4.13;1.90;;;;;;;;;;5027977;28;20726;-71
2023/08/26 06:56:19;;;;;;;3.23;1.83;;;;;;;;;;5033893;28;20219;-71
2023/08/26 06:58:45;;;;;;;2.90;1.80;;;;;;;;;;5052065;28;20472;-71
2023/08/26 07:01:11;;;;;;;3.65;1.73;;;;;;;;;;5051388;28;20222;-72
2023/08/26 07:03:37;;;;;;;3.47;1.47;;;;;;;;;;5048588;28;20215;-71
2023/08/26 07:06:04;;;;;;;3.90;1.50;;;;;;;;;;5051041;28;20220;-72
2023/08/26 07:08:30;;;;;;;1.90;1.50;;;;;;;;;;5051403;28;20203;-72
2023/08/26 07:10:57;;;;;;;3.37;1.23;;;;;;;;;;5051847;28;20317;-72
2023/08/26 07:13:23;;;;;;;2.27;1.40;;;;;;;;;;5048918;28;20207;-72
2023/08/26 07:15:49;;;;;;;2.47;1.20;;;;;;;;;;5071251;28;20194;-72
2023/08/26 07:18:15;;;;;;;1.70;1.37;;;;;;;;;;5062591;28;20284;-71
2023/08/26 07:20:45;;;;;;;2.00;1.13;;;;;;;;;;5051140;28;20209;-72
2023/08/26 07:23:12;;;;;;;2.40;1.50;;;;;;;;;;5052547;28;20207;-71
2023/08/26 07:25:38;;;;;;;2.30;1.57;;;;;;;;;;5068280;28;20723;-72
2023/08/26 07:28:04;;;;;;;1.50;1.20;;;;;;;;;;5064038;28;20198;-71
2023/08/26 07:30:31;;;;;;;3.30;1.30;;;;;;;;;;5050955;28;20199;-71
2023/08/26 07:32:57;;;;;;;1.93;1.30;;;;;;;;;;5052969;28;20199;-72
2023/08/26 07:35:23;;;;;;;2.65;1.70;;;;;;;;;;5063057;28;20224;-72
2023/08/26 07:37:50;;;;;;;1.60;1.15;;;;;;;;;;5066187;28;20191;-71
2023/08/26 07:40:16;;;;;;;2.50;1.47;;;;;;;;;;5052009;28;20290;-71
2023/08/26 07:42:44;;;;;;;2.88;1.23;;;;;;;;;;5050837;28;20215;-71
2023/08/26 07:45:11;;;;;;;2.65;1.40;;;;;;;;;;5050538;28;20612;-71
2023/08/26 07:47:38;;;;;;;1.92;1.40;;;;;;;;;;5050537;28;20199;-71
2023/08/26 07:50:08;;;;;;;2.33;1.33;;;;;;;;;;5058390;28;20206;-71
2023/08/26 07:52:35;;;;;;;1.95;1.30;;;;;;;;;;5049790;28;20272;-71
2023/08/26 07:55:02;;;;;;;2.33;1.42;;;;;;;;;;5050711;28;20343;-71
2023/08/26 07:57:28;;;;;;;3.00;1.50;;;;;;;;;;5051248;28;20210;-71
2023/08/26 07:59:54;;;;;;;1.58;1.20;;;;;;;;;;5050884;28;20210;-72
2023/08/26 08:02:20;;;;;;;2.33;1.23;;;;;;;;;;5050530;28;20219;-72
2023/08/26 08:04:47;;;;;;;5.70;1.40;;;;;;;;;;5050349;28;20296;-72
2023/08/26 08:07:14;;;;;;;2.10;1.40;;;;;;;;;;5051215;28;20279;-71
2023/08/26 08:09:40;;;;;;;2.47;1.52;;;;;;;;;;5050404;28;20642;-72
2023/08/26 08:12:09;;;;;;;3.10;1.30;;;;;;;;;;5058624;28;20210;-71
2023/08/26 08:14:35;;;;;;;3.38;1.70;;;;;;;;;;5048853;28;20786;-71
2023/08/26 08:17:01;;;;;;;2.88;1.40;;;;;;;;;;5050421;28;20237;-71
2023/08/26 08:19:27;;;;;;;2.70;1.50;;;;;;;;;;5049983;28;20293;-71
2023/08/26 08:21:54;;;;;;;4.95;1.30;;;;;;;;;;5050123;28;20347;-72
2023/08/26 08:24:20;;;;;;;2.83;1.50;;;;;;;;;;5047853;28;20215;-72
2023/08/26 08:26:46;;;;;;;3.95;1.40;;;;;;;;;;5050221;28;20206;-71
2023/08/26 08:29:13;;;;;;;1.80;1.30;;;;;;;;;;5050063;28;20672;-72
2023/08/26 08:31:39;;;;;;;3.10;1.38;;;;;;;;;;5049712;28;20206;-72
2023/08/26 08:34:05;;;;;;;1.20;1.10;;;;;;;;;;5047209;28;20705;-71
2023/08/26 08:36:32;;;;;;;1.60;1.20;;;;;;;;;;5049150;28;20206;-71
2023/08/26 08:38:58;;;;;;;2.67;1.48;;;;;;;;;;5032222;28;20195;-72
2023/08/26 08:41:25;;;;;;;2.88;1.30;;;;;;;;;;5049417;28;20214;-72
2023/08/26 08:43:54;;;;;;;1.75;1.23;;;;;;;;;;5048660;28;20214;-71
2023/08/26 08:46:20;;;;;;;2.20;1.38;;;;;;;;;;5047402;28;20783;-71
2023/08/26 08:48:47;;;;;;;1.73;1.00;;;;;;;;;;5049822;28;20195;-72
2023/08/26 08:51:13;;;;;;;2.92;1.20;;;;;;;;;;5049733;28;20241;-72
2023/08/26 08:53:44;;;;;;;2.85;1.58;;;;;;;;;;5048613;28;20694;-71
2023/08/26 08:56:12;;;;;;;4.15;1.42;;;;;;;;;;5047255;28;20586;-71
2023/08/26 08:58:39;;;;;;;3.35;1.35;;;;;;;;;;5048745;28;20204;-71
2023/08/26 09:01:06;;;;;;;2.45;1.33;;;;;;;;;;5049665;28;20236;-72
2023/08/26 09:03:32;;;;;;;2.13;1.20;;;;;;;;;;5040753;28;20206;-71
2023/08/26 09:05:59;;;;;;;2.63;1.38;;;;;;;;;;5047185;28;20199;-71
2023/08/26 09:08:26;;;;;;;1.75;1.00;;;;;;;;;;5049380;28;20214;-72
2023/08/26 09:10:53;;;;;;;1.65;1.17;;;;;;;;;;5049221;28;20281;-71
2023/08/26 09:13:19;;;;;;;1.75;1.17;;;;;;;;;;5048566;28;20195;-71
2023/08/26 09:15:45;;;;;;;2.78;1.10;;;;;;;;;;5047353;28;20208;-71
2023/08/26 09:18:13;;;;;;;1.40;1.20;;;;;;;;;;5049458;28;20225;-71
2023/08/26 09:20:40;;;;;;;2.95;1.27;;;;;;;;;;5049290;28;20260;-72
2023/08/26 09:23:08;;;;;;;1.80;1.20;;;;;;;;;;5048671;28;20461;-71
2023/08/26 09:25:34;;;;;;;2.63;1.27;;;;;;;;;;5047608;28;20226;-72
2023/08/26 09:28:01;;;;;;;2.22;1.38;;;;;;;;;;5030223;28;20195;-71
2023/08/26 09:30:27;;;;;;;3.47;1.00;;;;;;;;;;5049137;28;20203;-72
2023/08/26 09:32:55;;;;;;;3.63;1.40;;;;;;;;;;5048996;28;20198;-72
2023/08/26 09:35:21;;;;;;;2.15;1.20;;;;;;;;;;5046810;28;20233;-71
2023/08/26 09:38:08;;;;;;;1.27;1.08;;;;;;;;;;5049191;28;20210;-71
2023/08/26 09:40:34;;;;;;;2.42;1.20;;;;;;;;;;5031358;28;20439;-72
2023/08/26 09:43:03;;;;;;;1.42;1.02;;;;;;;;;;5048388;28;20321;-71
2023/08/26 09:45:35;;;;;;;2.83;1.00;;;;;;;;;;5049043;28;20413;-71
2023/08/26 09:48:01;;;;;;;2.05;1.10;;;;;;;;;;5049568;28;20215;-72
2023/08/26 09:50:33;;;;;;;1.70;0.90;;;;;;;;;;5048827;28;20207;-71
2023/08/26 09:53:00;;;;;;;3.20;1.00;;;;;;;;;;5047947;28;20199;-71
2023/08/26 09:55:27;;;;;;;2.47;1.33;;;;;;;;;;5048528;28;20229;-73
2023/08/26 09:57:53;;;;;;;1.45;1.10;;;;;;;;;;5049348;28;20195;-71
2023/08/26 10:00:20;;;;;;;2.05;1.10;;;;;;;;;;5048632;28;20206;-72
2023/08/26 10:02:48;;;;;;;2.50;1.08;;;;;;;;;;5047153;28;20221;-72
2023/08/26 10:05:18;;;;;;;2.92;1.05;;;;;;;;;;5048582;28;20660;-72
2023/08/26 10:07:46;;;;;;;1.38;0.90;;;;;;;;;;5041099;28;20195;-71
2023/08/26 10:10:25;;;;;;;2.67;1.10;;;;;;;;;;5048522;28;20286;-71
2023/08/26 10:12:54;;;;;;;1.45;0.93;;;;;;;;;;5041500;28;20658;-72
2023/08/26 10:15:20;;;;;;;2.40;1.10;;;;;;;;;;5051314;28;20237;-72
2023/08/26 10:17:49;;;;;;;1.40;1.00;;;;;;;;;;5052318;28;20199;-72
2023/08/26 10:20:15;;;;;;;1.08;0.82;;;;;;;;;;5049152;28;20627;-71
2023/08/26 10:22:42;;;;;;;1.83;1.30;;;;;;;;;;5051934;28;20593;-71
2023/08/26 10:25:09;;;;;;;2.20;0.93;;;;;;;;;;5051974;28;20222;-72
2023/08/26 10:27:36;;;;;;;2.35;1.55;;;;;;;;;;5049650;28;20203;-72
2023/08/26 10:30:03;;;;;;;2.58;1.10;;;;;;;;;;5051667;28;20253;-72
2023/08/26 10:32:29;;;;;;;3.75;1.30;;;;;;;;;;5052581;28;20329;-72
2023/08/26 10:34:57;;;;;;;3.35;2.22;;;;;;;;;;5051448;28;20219;-72
2023/08/26 10:37:26;;;;;;;3.40;1.60;;;;;;;;;;5050553;28;20202;-72
2023/08/26 10:39:54;;;;;;;3.60;1.98;;;;;;;;;;5052284;28;20205;-71
2023/08/26 10:42:21;;;;;;;3.58;1.52;;;;;;;;;;5035041;28;20488;-72
2023/08/26 10:44:48;;;;;;;2.40;1.90;;;;;;;;;;5051442;28;20717;-72
2023/08/26 10:47:29;;;;;;;1.48;1.30;;;;;;;;;;5049879;28;20720;-71
2023/08/26 10:50:12;;;;;;;2.00;1.20;;;;;;;;;;5051920;28;20281;-72
2023/08/26 10:52:40;;;;;;;2.38;1.30;;;;;;;;;;5051629;28;20302;-72
2023/08/26 10:55:20;;;;;;;2.78;1.50;;;;;;;;;;5051343;28;20227;-72
2023/08/26 10:57:59;;;;;;;2.47;1.35;;;;;;;;;;5046365;28;20290;-72
2023/08/26 11:00:26;;;;;;;2.42;1.33;;;;;;;;;;5051489;28;20233;-72
2023/08/26 11:02:54;;;;;;;4.20;1.27;;;;;;;;;;5051341;28;20574;-71
2023/08/26 11:05:21;;;;;;;1.75;1.17;;;;;;;;;;5050926;28;20864;-71
2023/08/26 11:07:47;;;;;;;2.75;1.20;;;;;;;;;;5044926;28;20714;-72
2023/08/26 11:10:30;;;;;;;2.58;1.60;;;;;;;;;;5049756;28;20551;-72
2023/08/26 11:12:57;;;;;;;2.90;1.30;;;;;;;;;;5043108;28;20685;-72
2023/08/26 11:15:23;;;;;;;3.88;1.50;;;;;;;;;;5067380;28;20313;-71
2023/08/26 11:17:50;;;;;;;1.80;1.05;;;;;;;;;;5041847;28;20199;-72
2023/08/26 11:20:17;;;;;;;1.15;1.00;;;;;;;;;;5051022;28;20209;-71
2023/08/26 11:22:44;;;;;;;2.47;1.10;;;;;;;;;;5060036;28;20229;-72
2023/08/26 11:25:14;;;;;;;3.05;1.40;;;;;;;;;;5070567;28;20221;-71
2023/08/26 11:27:41;;;;;;;2.00;0.93;;;;;;;;;;5059663;28;20203;-71
2023/08/26 11:30:10;;;;;;;3.03;1.50;;;;;;;;;;5050994;28;20209;-72
2023/08/26 11:32:37;;;;;;;0.80;0.70;;;;;;;;;;5050805;28;20281;-72
2023/08/26 11:35:05;;;;;;;3.97;1.15;;;;;;;;;;5064284;28;20325;-72
2023/08/26 11:37:42;;;;;;;2.90;1.20;;;;;;;;;;5060926;28;20199;-72
2023/08/26 11:40:08;;;;;;;1.50;1.02;;;;;;;;;;5050796;28;20255;-72
2023/08/26 11:42:35;;;;;;;2.22;1.20;;;;;;;;;;5056820;28;20215;-73
2023/08/26 11:45:02;;;;;;;2.15;1.17;;;;;;;;;;5063340;28;20241;-72
2023/08/26 11:47:28;;;;;;;2.75;1.20;;;;;;;;;;5061532;28;20207;-72
2023/08/26 11:49:55;;;;;;;2.28;1.10;;;;;;;;;;5050882;28;20195;-72
2023/08/26 11:52:31;;;;;;;1.63;1.08;;;;;;;;;;5052052;28;20589;-72
2023/08/26 11:54:58;;;;;;;3.83;1.10;;;;;;;;;;5068808;28;20224;-73
2023/08/26 11:57:24;;;;;;;1.83;0.90;;;;;;;;;;5061733;28;20627;-72
2023/08/26 11:59:50;;;;;;;2.80;1.27;;;;;;;;;;5051204;28;20595;-72
2023/08/26 12:02:21;;;;;;;4.28;1.40;;;;;;;;;;5050490;28;20229;-71
2023/08/26 12:04:54;;;;;;;2.30;0.98;;;;;;;;;;5032272;28;20215;-73
2023/08/26 12:07:20;;;;;;;2.78;2.00;;;;;;;;;;5050449;28;20239;-72
2023/08/26 12:09:47;;;;;;;2.45;1.00;;;;;;;;;;5041849;28;20282;-72
2023/08/26 12:12:17;;;;;;;2.25;1.20;;;;;;;;;;5050108;28;20206;-73
2023/08/26 12:14:43;;;;;;;1.95;0.98;;;;;;;;;;5049226;28;20230;-72
2023/08/26 12:17:10;;;;;;;2.70;1.10;;;;;;;;;;5049481;28;20579;-72
2023/08/26 12:19:36;;;;;;;1.88;0.98;;;;;;;;;;5049945;28;20210;-72
2023/08/26 12:22:03;;;;;;;2.78;1.00;;;;;;;;;;5049887;28;20207;-72
2023/08/26 12:24:29;;;;;;;2.65;1.00;;;;;;;;;;5049434;28;20284;-72
2023/08/26 12:27:05;;;;;;;3.65;1.00;;;;;;;;;;5049100;28;20555;-72
2023/08/26 12:29:32;;;;;;;2.55;1.10;;;;;;;;;;5049856;28;20198;-72
2023/08/26 12:31:59;;;;;;;1.30;0.90;;;;;;;;;;5049879;28;20655;-72
2023/08/26 12:34:25;;;;;;;3.53;1.23;;;;;;;;;;5049197;28;20254;-72
2023/08/26 12:36:51;;;;;;;3.35;1.30;;;;;;;;;;5049768;28;20201;-71
2023/08/26 12:39:17;;;;;;;1.38;0.90;;;;;;;;;;5049567;28;20199;-72
2023/08/26 12:41:44;;;;;;;3.17;1.10;;;;;;;;;;5031458;28;20285;-71
2023/08/26 12:44:12;;;;;;;5.22;1.00;;;;;;;;;;5044501;28;20222;-71
2023/08/26 12:46:38;;;;;;;1.75;1.33;;;;;;;;;;5031575;28;20210;-72
2023/08/26 12:49:04;;;;;;;2.72;0.98;;;;;;;;;;5031793;28;20282;-72
2023/08/26 12:51:40;;;;;;;1.85;1.00;;;;;;;;;;5047070;28;20198;-72
2023/08/26 12:54:06;;;;;;;1.40;1.20;;;;;;;;;;5049109;28;20226;-72
2023/08/26 12:56:33;;;;;;;1.15;0.90;;;;;;;;;;5045507;28;20285;-72
2023/08/26 12:58:59;;;;;;;3.17;1.15;;;;;;;;;;5049406;28;20270;-71
2023/08/26 13:01:25;;;;;;;1.65;1.25;;;;;;;;;;5049202;28;20209;-72
2023/08/26 13:03:52;;;;;;;2.75;1.15;;;;;;;;;;5049705;28;20298;-72
2023/08/26 13:06:18;;;;;;;3.50;1.00;;;;;;;;;;5044823;28;20202;-72
2023/08/26 13:08:45;;;;;;;2.53;1.02;;;;;;;;;;5031645;28;20229;-72
2023/08/26 13:11:11;;;;;;;1.98;0.93;;;;;;;;;;5049639;28;20201;-72
2023/08/26 13:13:38;;;;;;;1.55;1.00;;;;;;;;;;5031180;28;20226;-72
2023/08/26 13:16:04;;;;;;;1.58;1.27;;;;;;;;;;5047178;28;20202;-71
2023/08/26 13:18:31;;;;;;;1.83;1.00;;;;;;;;;;5048959;28;20231;-73
2023/08/26 13:20:57;;;;;;;1.48;1.20;;;;;;;;;;5048962;28;20733;-72
2023/08/26 13:23:24;;;;;;;1.30;1.17;;;;;;;;;;5049160;28;20303;-72
2023/08/26 13:25:50;;;;;;;2.28;1.20;;;;;;;;;;5040305;28;20657;-71
2023/08/26 13:28:18;;;;;;;2.83;1.15;;;;;;;;;;5047758;28;20655;-72
2023/08/26 13:30:44;;;;;;;2.00;1.17;;;;;;;;;;5048981;28;20199;-72
2023/08/26 13:33:10;;;;;;;3.70;1.15;;;;;;;;;;5048916;28;20286;-72
2023/08/26 13:35:37;;;;;;;1.17;0.98;;;;;;;;;;5048099;28;20278;-72
2023/08/26 13:38:03;;;;;;;1.73;1.00;;;;;;;;;;5047563;28;20213;-72
2023/08/26 13:40:29;;;;;;;2.17;1.40;;;;;;;;;;5048756;28;20681;-71
2023/08/26 13:42:55;;;;;;;4.47;1.13;;;;;;;;;;5049160;28;20691;-72
2023/08/26 13:45:22;;;;;;;2.22;1.00;;;;;;;;;;5048832;28;20219;-72
2023/08/26 13:47:48;;;;;;;1.42;1.20;;;;;;;;;;5046407;28;20195;-72
2023/08/26 13:50:15;;;;;;;1.23;1.10;;;;;;;;;;5050906;28;20291;-72
2023/08/26 13:52:41;;;;;;;3.08;1.40;;;;;;;;;;5052634;28;20209;-72
2023/08/26 13:55:08;;;;;;;1.58;1.10;;;;;;;;;;5052579;28;20234;-71
2023/08/26 13:57:35;;;;;;;2.28;1.25;;;;;;;;;;5050481;28;20579;-72
2023/08/26 14:00:02;;;;;;;1.48;1.20;;;;;;;;;;5051406;28;20195;-72
2023/08/26 14:02:28;;;;;;;2.08;1.10;;;;;;;;;;5034629;28;20206;-72
2023/08/26 14:04:55;;;;;;;2.45;1.20;;;;;;;;;;5034741;28;20649;-71
2023/08/26 14:07:21;;;;;;;4.30;1.30;;;;;;;;;;5052077;28;20638;-72
2023/08/26 14:09:47;;;;;;;1.65;1.17;;;;;;;;;;5050319;28;20191;-72
2023/08/26 14:12:13;;;;;;;1.60;1.30;;;;;;;;;;5052562;28;20209;-71
2023/08/26 14:14:40;;;;;;;2.30;1.30;;;;;;;;;;5034551;28;20785;-71
2023/08/26 14:17:07;;;;;;;3.50;1.63;;;;;;;;;;5052631;28;20206;-72
2023/08/26 14:19:36;;;;;;;1.83;1.40;;;;;;;;;;5052494;28;20206;-72
2023/08/26 14:22:03;;;;;;;3.00;1.50;;;;;;;;;;5054487;28;20565;-72
2023/08/26 14:24:30;;;;;;;1.95;1.40;;;;;;;;;;5055094;28;20223;-72
2023/08/26 14:26:56;;;;;;;1.83;1.38;;;;;;;;;;5052368;28;20285;-72
2023/08/26 14:29:22;;;;;;;2.20;1.60;;;;;;;;;;5052471;28;20195;-72
2023/08/26 14:31:48;;;;;;;1.35;1.00;;;;;;;;;;5052354;28;20206;-71
2023/08/26 14:34:15;;;;;;;3.33;1.40;;;;;;;;;;5058848;28;20229;-71
2023/08/26 14:36:41;;;;;;;1.63;1.23;;;;;;;;;;5053150;28;20739;-72